FIN8CA EBBR-EFHK
Flight info
| Callsign | FIN8CA |
|---|---|
| Flight time | N/A |
| Altitude | 41000 |
| Route | NIK L191 VICOT N873 ANDIK DCT BEDUM DCT DOSUR DCT RASMU DCT ROGMI DCT ALAMI DCT OKEVU DCT EVADI Y370 DIVAM |
| Aircraft | A359/H-SDE2E3GHIJ1J3J4J5LM1ORWXYZ/LB1D1 |
Departure
| Time | N/A |
|---|---|
| Airport | Brussels Airport (EBBR) |
Arrival
| Time | 2026-04-20 14:19 |
|---|---|
| Airport | Helsinki Vantaa Airport (EFHK) |
| Time | Latitude | Longitude | Altitude | Speed | Heading |
|---|---|---|---|---|---|
| 2026-04-20 14:12 | 60.04523 | 24.49792 | 6028 ft | 221 kts | 10° |
| 2026-04-20 14:12 | 60.06061 | 24.50206 | 5774 ft | 221 kts | 9° |
| 2026-04-20 14:12 | 60.07586 | 24.50598 | 5509 ft | 220 kts | 8° |
| 2026-04-20 14:12 | 60.09078 | 24.50995 | 5244 ft | 219 kts | 8° |
| 2026-04-20 14:13 | 60.10585 | 24.51407 | 5003 ft | 218 kts | 8° |
| 2026-04-20 14:13 | 60.12092 | 24.51827 | 4738 ft | 218 kts | 8° |
| 2026-04-20 14:13 | 60.13556 | 24.52536 | 4459 ft | 218 kts | 23° |
| 2026-04-20 14:13 | 60.14784 | 24.54287 | 4121 ft | 218 kts | 43° |
| 2026-04-20 14:14 | 60.15810 | 24.56547 | 3735 ft | 220 kts | 48° |
| 2026-04-20 14:14 | 60.16821 | 24.58845 | 3431 ft | 218 kts | 46° |
| 2026-04-20 14:14 | 60.17834 | 24.61057 | 3290 ft | 210 kts | 45° |
| 2026-04-20 14:14 | 60.18803 | 24.63153 | 3217 ft | 199 kts | 45° |
| 2026-04-20 14:15 | 60.19733 | 24.65159 | 3152 ft | 195 kts | 45° |
| 2026-04-20 14:15 | 60.20661 | 24.67163 | 3074 ft | 196 kts | 45° |
| 2026-04-20 14:15 | 60.21585 | 24.69168 | 2938 ft | 195 kts | 45° |
| 2026-04-20 14:15 | 60.22503 | 24.71174 | 2731 ft | 194 kts | 46° |
| 2026-04-20 14:16 | 60.23407 | 24.73156 | 2492 ft | 190 kts | 46° |
| 2026-04-20 14:16 | 60.24301 | 24.75108 | 2260 ft | 189 kts | 45° |
| 2026-04-20 14:16 | 60.25174 | 24.77010 | 1952 ft | 177 kts | 45° |
| 2026-04-20 14:16 | 60.25957 | 24.78720 | 1750 ft | 155 kts | 46° |
| 2026-04-20 14:17 | 60.26658 | 24.80256 | 1523 ft | 145 kts | 44° |
| 2026-04-20 14:17 | 60.27323 | 24.81707 | 1336 ft | 136 kts | 45° |
| 2026-04-20 14:17 | 60.27933 | 24.83050 | 1163 ft | 124 kts | 45° |
| 2026-04-20 14:17 | 60.28521 | 24.84329 | 962 ft | 124 kts | 44° |
| 2026-04-20 14:18 | 60.29115 | 24.85594 | 754 ft | 124 kts | 44° |
| 2026-04-20 14:18 | 60.29702 | 24.86882 | 637 ft | 126 kts | 45° |
| 2026-04-20 14:18 | 60.30292 | 24.88212 | 430 ft | 127 kts | 46° |
| 2026-04-20 14:18 | 60.30890 | 24.89517 | 295 ft | 129 kts | 41° |
| 2026-04-20 14:19 | 60.31499 | 24.90840 | 166 ft | 126 kts | 44° |
| 2026-04-20 14:19 | 60.32055 | 24.92052 | 163 ft | 107 kts | 45° |
| 2026-04-20 14:19 | 60.32439 | 24.92898 | 179 ft | 48 kts | 47° |
| 2026-04-20 14:19 | 60.32647 | 24.93357 | 195 ft | 40 kts | 47° |
| 2026-04-20 14:20 | 60.32828 | 24.93756 | 203 ft | 37 kts | 47° |
| 2026-04-20 14:20 | 60.32997 | 24.94127 | 209 ft | 31 kts | 47° |
| 2026-04-20 14:20 | 60.33055 | 24.94402 | 207 ft | 12 kts | 98° |
| 2026-04-20 14:20 | 60.33042 | 24.94623 | 189 ft | 17 kts | 108° |
| 2026-04-20 14:21 | 60.32943 | 24.94824 | 183 ft | 23 kts | 138° |
| 2026-04-20 14:21 | 60.32795 | 24.94980 | 183 ft | 24 kts | 162° |
| 2026-04-20 14:21 | 60.32634 | 24.95084 | 196 ft | 25 kts | 162° |
| 2026-04-20 14:21 | 60.32461 | 24.95197 | 199 ft | 28 kts | 162° |
| 2026-04-20 14:22 | 60.32320 | 24.95309 | 183 ft | 21 kts | 142° |
| 2026-04-20 14:22 | 60.32204 | 24.95522 | 180 ft | 24 kts | 137° |
| 2026-04-20 14:22 | 60.32089 | 24.95734 | 180 ft | 22 kts | 137° |
| 2026-04-20 14:22 | 60.32007 | 24.95886 | 179 ft | 11 kts | 137° |
| 2026-04-20 14:23 | 60.31983 | 24.95930 | 178 ft | 0 kts | 137° |
| 2026-04-20 14:24 | 60.31983 | 24.95931 | 178 ft | 1 kts | 137° |
| 2026-04-20 14:24 | 60.31964 | 24.95966 | 178 ft | 8 kts | 137° |
| 2026-04-20 14:24 | 60.31896 | 24.96091 | 173 ft | 18 kts | 137° |
| 2026-04-20 14:24 | 60.31817 | 24.96100 | 173 ft | 8 kts | 228° |
| 2026-04-20 14:25 | 60.31769 | 24.95993 | 173 ft | 12 kts | 228° |
| 2026-04-20 14:25 | 60.31715 | 24.95939 | 173 ft | 2 kts | 148° |
| 2026-04-20 14:25 | 60.31699 | 24.95975 | 173 ft | 5 kts | 134° |
| 2026-04-20 14:25 | 60.31685 | 24.96003 | 173 ft | 0 kts | 136° |
| 2026-04-20 14:26 | 60.31684 | 24.96004 | 173 ft | 1 kts | 136° |
| 2026-04-20 14:26 | 60.31676 | 24.96021 | 173 ft | 0 kts | 136° |
| 2026-04-20 14:26 | 60.31673 | 24.96027 | 173 ft | 0 kts | 137° |